createdAt,value
2023-02-27T00:00:16.470Z,-2.37
2023-02-27T00:02:44.409Z,-2.36
2023-02-27T00:05:13.086Z,-2.34
2023-02-27T00:07:42.403Z,-2.33
2023-02-27T00:10:12.788Z,-2.32
2023-02-27T00:12:40.441Z,-2.31
2023-02-27T00:15:09.473Z,-2.37
2023-02-27T00:17:37.447Z,-2.35
2023-02-27T00:20:05.882Z,-2.37
2023-02-27T00:22:33.506Z,-2.37
2023-02-27T00:25:02.441Z,-2.37
2023-02-27T00:27:30.009Z,-2.37
2023-02-27T00:29:57.648Z,-2.38
2023-02-27T00:32:25.248Z,-2.38
2023-02-27T00:34:52.860Z,-2.31
2023-02-27T00:37:20.441Z,-2.27
2023-02-27T00:39:48.020Z,-2.31
2023-02-27T00:42:17.088Z,-2.32
2023-02-27T00:44:44.690Z,-2.32
2023-02-27T00:47:12.272Z,-2.30
2023-02-27T00:49:39.975Z,-2.27
2023-02-27T00:52:07.584Z,-2.28
2023-02-27T00:54:35.224Z,-2.28
2023-02-27T00:57:02.863Z,-2.28
2023-02-27T00:59:31.802Z,-2.27
2023-02-27T01:01:59.497Z,-2.26
2023-02-27T01:04:27.095Z,-2.26
2023-02-27T01:06:54.705Z,-2.24
2023-02-27T01:09:22.340Z,-2.32
2023-02-27T01:11:49.935Z,-2.30
2023-02-27T01:14:17.556Z,-2.34
2023-02-27T01:16:46.599Z,-2.35
2023-02-27T01:19:14.169Z,-2.39
2023-02-27T01:21:42.546Z,-2.40
2023-02-27T01:24:10.174Z,-2.43
2023-02-27T01:26:38.081Z,-2.40
2023-02-27T01:29:06.588Z,-2.45
2023-02-27T01:31:34.353Z,-2.46
2023-02-27T01:34:03.321Z,-2.47
2023-02-27T01:36:31.081Z,-2.47
2023-02-27T01:38:58.763Z,-2.42
2023-02-27T01:41:26.593Z,-2.40
2023-02-27T01:43:59.392Z,-2.40
2023-02-27T01:46:27.681Z,-2.38
2023-02-27T01:48:59.671Z,-2.37
2023-02-27T01:51:31.990Z,-2.40
2023-02-27T01:54:00.478Z,-2.40
2023-02-27T01:56:29.301Z,-2.38
2023-02-27T01:58:59.505Z,-2.46
2023-02-27T02:01:28.248Z,-2.48
2023-02-27T02:04:00.775Z,-2.44
2023-02-27T02:06:31.739Z,-2.45
2023-02-27T02:08:59.892Z,-2.43
2023-02-27T02:11:28.887Z,-2.47
2023-02-27T02:13:58.544Z,-2.46
2023-02-27T02:16:42.897Z,-2.46
2023-02-27T02:19:53.002Z,-2.45
2023-02-27T02:22:37.563Z,-2.48
2023-02-27T02:25:44.732Z,-2.54
2023-02-27T02:28:22.268Z,-2.50
2023-02-27T02:31:17.261Z,-2.49
2023-02-27T02:34:13.608Z,-2.53
2023-02-27T02:37:10.134Z,-2.50
2023-02-27T02:39:52.688Z,-2.50
2023-02-27T02:42:23.493Z,-2.57
2023-02-27T02:44:58.396Z,-2.55
2023-02-27T02:47:32.817Z,-2.55
2023-02-27T02:50:05.415Z,-2.61
2023-02-27T02:52:37.995Z,-2.57
2023-02-27T02:55:09.894Z,-2.59
2023-02-27T02:57:38.486Z,-2.60
2023-02-27T03:00:09.393Z,-2.58
2023-02-27T03:02:40.675Z,-2.71
2023-02-27T03:05:10.026Z,-2.68
2023-02-27T03:07:40.401Z,-2.65
2023-02-27T03:10:13.157Z,-2.73
2023-02-27T03:12:42.919Z,-2.68
2023-02-27T03:15:14.937Z,-2.66
2023-02-27T03:17:46.766Z,-2.62
2023-02-27T03:20:19.406Z,-2.61
2023-02-27T03:22:48.985Z,-2.63
2023-02-27T03:25:18.367Z,-2.61
2023-02-27T03:27:49.541Z,-2.65
2023-02-27T03:30:19.893Z,-2.63
2023-02-27T03:32:50.153Z,-2.57
2023-02-27T03:35:17.783Z,-2.61
2023-02-27T03:37:52.815Z,-2.67
2023-02-27T03:40:27.564Z,-2.64
2023-02-27T03:43:00.985Z,-2.66
2023-02-27T03:45:33.563Z,-2.69
2023-02-27T03:48:01.673Z,-2.75
2023-02-27T03:50:29.275Z,-2.78
2023-02-27T03:52:57.639Z,-2.75
2023-02-27T03:55:30.804Z,-2.74
2023-02-27T03:57:58.448Z,-2.80
2023-02-27T04:00:27.252Z,-2.84
2023-02-27T04:02:56.080Z,-2.78
2023-02-27T04:05:24.346Z,-2.78
2023-02-27T04:08:11.622Z,-2.73
2023-02-27T04:10:55.462Z,-2.71
2023-02-27T04:13:32.272Z,-2.73
2023-02-27T04:16:12.181Z,-2.70
2023-02-27T04:18:52.516Z,-2.79
2023-02-27T04:21:26.191Z,-2.79
2023-02-27T04:23:58.797Z,-2.74
2023-02-27T04:26:31.293Z,-2.69
2023-02-27T04:29:04.498Z,-2.71
2023-02-27T04:31:36.766Z,-2.74
2023-02-27T04:34:09.731Z,-2.73
2023-02-27T04:36:40.718Z,-2.73
2023-02-27T04:39:09.549Z,-2.71
2023-02-27T04:41:41.177Z,-2.70
2023-02-27T04:44:09.896Z,-2.67
2023-02-27T04:46:40.251Z,-2.68
2023-02-27T04:49:10.647Z,-2.64
2023-02-27T04:51:43.928Z,-2.64
2023-02-27T04:54:14.306Z,-2.61
2023-02-27T04:56:47.453Z,-2.62
2023-02-27T04:59:17.914Z,-2.63
2023-02-27T05:01:48.995Z,-2.65
2023-02-27T05:04:20.580Z,-2.63
2023-02-27T05:06:49.368Z,-2.64
2023-02-27T05:09:21.754Z,-2.70
2023-02-27T05:11:53.522Z,-2.66
2023-02-27T05:14:24.471Z,-2.62
2023-02-27T05:16:55.342Z,-2.65
2023-02-27T05:19:23.162Z,-2.66
2023-02-27T05:21:55.319Z,-2.65
2023-02-27T05:24:30.205Z,-2.64
2023-02-27T05:27:11.869Z,-2.67
2023-02-27T05:29:45.807Z,-2.67
2023-02-27T05:32:23.871Z,-2.69
2023-02-27T05:34:53.953Z,-2.69
2023-02-27T05:37:24.357Z,-2.68
2023-02-27T05:39:53.452Z,-2.69
2023-02-27T05:42:26.995Z,-2.70
2023-02-27T05:44:57.795Z,-2.72
2023-02-27T05:47:28.759Z,-2.73
2023-02-27T05:50:00.279Z,-2.80
2023-02-27T05:52:29.110Z,-2.82
2023-02-27T05:55:01.729Z,-2.83
2023-02-27T05:57:33.610Z,-2.78
2023-02-27T06:00:02.986Z,-2.79
2023-02-27T06:02:30.733Z,-2.76
2023-02-27T06:04:58.465Z,-2.77
2023-02-27T06:07:26.116Z,-2.76
2023-02-27T06:09:53.828Z,-2.78
2023-02-27T06:12:21.496Z,-2.78
2023-02-27T06:14:51.782Z,-2.78
2023-02-27T06:17:19.385Z,-2.78
2023-02-27T06:19:47.104Z,-2.81
2023-02-27T06:22:14.736Z,-2.86
2023-02-27T06:24:42.379Z,-2.83
2023-02-27T06:27:10.069Z,-2.85
2023-02-27T06:29:37.671Z,-2.89
2023-02-27T06:32:06.653Z,-2.89
2023-02-27T06:34:34.291Z,-2.84
2023-02-27T06:37:04.176Z,-2.89
2023-02-27T06:39:32.770Z,-2.92
2023-02-27T06:42:00.371Z,-2.85
2023-02-27T06:44:28.017Z,-2.83
2023-02-27T06:46:55.613Z,-2.80
2023-02-27T06:49:24.627Z,-2.75
2023-02-27T06:51:52.251Z,-2.72
2023-02-27T06:54:19.881Z,-2.67
2023-02-27T06:56:47.957Z,-2.64
2023-02-27T06:59:15.596Z,-2.66
2023-02-27T07:01:43.301Z,-2.65
2023-02-27T07:04:13.167Z,-2.59
2023-02-27T07:07:34.672Z,-2.64
2023-02-27T07:09:29.826Z,-2.56
2023-02-27T07:11:57.452Z,-2.54
2023-02-27T07:14:26.931Z,-2.49
2023-02-27T07:16:54.927Z,-2.49
2023-02-27T07:19:30.332Z,-2.46
2023-02-27T07:22:21.339Z,-2.43
2023-02-27T07:24:49.028Z,-2.50
2023-02-27T07:27:16.665Z,-2.45
2023-02-27T07:29:44.298Z,-2.42
2023-02-27T07:32:12.257Z,-2.37
2023-02-27T07:34:39.885Z,-2.32
2023-02-27T07:37:08.022Z,-2.28
2023-02-27T07:39:36.937Z,-2.25
2023-02-27T07:42:05.019Z,-2.22
2023-02-27T07:44:32.944Z,-2.28
2023-02-27T07:47:00.577Z,-2.25
2023-02-27T07:49:28.227Z,-2.22
2023-02-27T07:51:55.887Z,-2.18
2023-02-27T07:54:23.475Z,-2.16
2023-02-27T07:56:52.368Z,-2.14
2023-02-27T07:59:20.001Z,-2.19
2023-02-27T08:01:47.698Z,-2.19
2023-02-27T08:04:18.824Z,-2.12
2023-02-27T08:06:46.433Z,-2.26
2023-02-27T08:09:14.055Z,-2.17
2023-02-27T08:11:41.737Z,-2.03
2023-02-27T08:14:10.712Z,-2.09
2023-02-27T08:17:13.693Z,-2.08
2023-02-27T08:19:41.761Z,-2.07
2023-02-27T08:22:09.384Z,-2.07
2023-02-27T08:24:38.542Z,-2.06
2023-02-27T08:27:06.130Z,-1.94
2023-02-27T08:29:33.858Z,-1.90
2023-02-27T08:32:02.032Z,-1.87
2023-02-27T08:34:31.288Z,-1.79
2023-02-27T08:36:59.103Z,-1.84
2023-02-27T08:39:26.693Z,-1.84
2023-02-27T08:41:54.287Z,-1.86
2023-02-27T08:44:21.961Z,-1.83
2023-02-27T08:46:49.585Z,-1.71
2023-02-27T08:49:19.467Z,-1.73
2023-02-27T08:51:49.522Z,-1.59
2023-02-27T08:54:17.084Z,-1.51
2023-02-27T08:56:44.681Z,-1.49
2023-02-27T08:59:12.251Z,-1.47
2023-02-27T09:01:42.700Z,-1.46
2023-02-27T09:04:10.959Z,-1.38
2023-02-27T09:06:38.931Z,-1.32
2023-02-27T09:09:08.012Z,-1.42
2023-02-27T09:11:37.475Z,-1.46
2023-02-27T09:14:24.121Z,-1.39
2023-02-27T09:16:51.739Z,-1.30
2023-02-27T09:19:19.308Z,-1.37
2023-02-27T09:21:47.144Z,-1.22
2023-02-27T09:24:20.399Z,-1.28
2023-02-27T09:26:48.790Z,-1.24
2023-02-27T09:29:16.722Z,-1.35
2023-02-27T09:31:44.438Z,-1.38
2023-02-27T09:34:12.070Z,-1.25
2023-02-27T09:36:39.667Z,-1.29
2023-02-27T09:39:09.658Z,-1.27
2023-02-27T09:41:49.340Z,-1.37
2023-02-27T09:44:36.343Z,-1.32
2023-02-27T09:47:14.377Z,-1.36
2023-02-27T09:50:02.561Z,-1.28
2023-02-27T09:52:31.728Z,-1.21
2023-02-27T09:54:59.631Z,-1.15
2023-02-27T09:57:39.471Z,-1.25
2023-02-27T10:00:09.999Z,-1.33
2023-02-27T10:02:48.051Z,-1.33
2023-02-27T10:05:26.736Z,-1.18
2023-02-27T10:08:01.070Z,-1.10
2023-02-27T10:10:32.786Z,-1.03
2023-02-27T10:13:24.208Z,-1.18
2023-02-27T10:15:54.140Z,-1.31
2023-02-27T10:18:28.998Z,-1.37
2023-02-27T10:21:01.599Z,-1.47
2023-02-27T10:23:35.024Z,-1.53
2023-02-27T10:26:02.984Z,-1.43
2023-02-27T10:28:31.996Z,-1.27
2023-02-27T10:31:02.050Z,-1.33
2023-02-27T10:33:33.842Z,-1.33
2023-02-27T10:36:03.221Z,-1.31
2023-02-27T10:38:34.648Z,-1.21
2023-02-27T10:41:03.303Z,-1.19
2023-02-27T10:43:32.275Z,-1.15
2023-02-27T10:46:02.429Z,-1.10
2023-02-27T10:48:32.758Z,-0.95
2023-02-27T10:51:22.050Z,-0.90
2023-02-27T10:53:49.641Z,-0.90
2023-02-27T10:56:20.235Z,-1.02
2023-02-27T10:59:02.657Z,-0.94
2023-02-27T11:01:42.425Z,-0.98
2023-02-27T11:04:10.113Z,-0.93
2023-02-27T11:06:37.732Z,-0.90
2023-02-27T11:09:21.876Z,-0.77
2023-02-27T11:11:49.901Z,-0.72
2023-02-27T11:14:29.901Z,-0.79
2023-02-27T11:16:59.073Z,-0.98
2023-02-27T11:19:31.648Z,-0.94
2023-02-27T11:22:02.064Z,-0.74
2023-02-27T11:24:30.797Z,-0.64
2023-02-27T11:27:00.115Z,-0.77
2023-02-27T11:29:29.058Z,-0.96
2023-02-27T11:31:57.754Z,-0.86
2023-02-27T11:34:31.849Z,-0.77
2023-02-27T11:37:01.973Z,-0.79
2023-02-27T11:39:37.702Z,-0.85
2023-02-27T11:42:18.832Z,-0.76
2023-02-27T11:44:54.529Z,-0.67
2023-02-27T11:47:27.325Z,-0.70
2023-02-27T11:50:28.545Z,-0.72
2023-02-27T11:53:02.918Z,-0.62
2023-02-27T11:55:30.780Z,-0.63
2023-02-27T11:58:03.613Z,-0.50
2023-02-27T12:00:37.132Z,-0.54
2023-02-27T12:03:07.405Z,-0.53
2023-02-27T12:05:40.049Z,-0.50
2023-02-27T12:08:12.610Z,-0.69
2023-02-27T12:10:47.210Z,-0.69
2023-02-27T12:13:16.662Z,-0.69
2023-02-27T12:15:46.742Z,-0.84
2023-02-27T12:18:17.524Z,-0.90
2023-02-27T12:20:51.444Z,-0.82
2023-02-27T12:23:23.356Z,-0.87
2023-02-27T12:25:53.931Z,-1.02
2023-02-27T12:28:34.242Z,-1.21
2023-02-27T12:31:09.034Z,-1.16
2023-02-27T12:33:40.738Z,-1.05
2023-02-27T12:36:11.980Z,-1.14
2023-02-27T12:38:39.623Z,-1.16
2023-02-27T12:41:30.404Z,-1.21
2023-02-27T12:44:17.658Z,-1.29
2023-02-27T12:46:49.925Z,-1.19
2023-02-27T12:49:25.957Z,-1.05
2023-02-27T12:52:00.703Z,-1.01
2023-02-27T12:54:37.225Z,-1.03
2023-02-27T12:57:15.967Z,-1.03
2023-02-27T12:59:52.403Z,-1.24
2023-02-27T13:02:34.954Z,-1.15
2023-02-27T13:05:24.106Z,-1.36
2023-02-27T13:07:57.567Z,-1.31
2023-02-27T13:10:31.443Z,-1.17
2023-02-27T13:13:04.408Z,-1.16
2023-02-27T13:15:35.565Z,-0.99
2023-02-27T13:18:10.698Z,-0.97
2023-02-27T13:20:44.024Z,-0.89
2023-02-27T13:23:18.307Z,-0.90
2023-02-27T13:25:50.815Z,-0.88
2023-02-27T13:28:21.696Z,-0.83
2023-02-27T13:30:57.300Z,-0.80
2023-02-27T13:33:31.064Z,-0.72
2023-02-27T13:36:06.220Z,-0.73
2023-02-27T13:38:42.982Z,-0.70
2023-02-27T13:41:37.028Z,-0.82
2023-02-27T13:44:37.319Z,-0.94
2023-02-27T13:47:39.069Z,-1.02
2023-02-27T13:50:52.452Z,-0.72
2023-02-27T13:53:22.501Z,-0.79
2023-02-27T13:55:50.615Z,-0.99
2023-02-27T13:58:24.642Z,-1.04
2023-02-27T14:01:02.935Z,-0.96
2023-02-27T14:03:32.169Z,-1.01
2023-02-27T14:06:04.085Z,-0.98
2023-02-27T14:08:34.389Z,-1.06
2023-02-27T14:11:13.949Z,-1.04
2023-02-27T14:14:00.761Z,-1.05
2023-02-27T14:16:57.691Z,-1.05
2023-02-27T14:19:45.151Z,-1.05
2023-02-27T14:22:40.275Z,-1.17
2023-02-27T14:25:18.792Z,-1.04
2023-02-27T14:27:50.593Z,-0.96
2023-02-27T14:30:27.584Z,-0.94
2023-02-27T14:32:58.370Z,-1.02
2023-02-27T14:35:26.490Z,-1.09
2023-02-27T14:37:55.724Z,-0.99
2023-02-27T14:40:29.914Z,-1.07
2023-02-27T14:43:04.481Z,-1.09
2023-02-27T14:45:32.476Z,-1.11
2023-02-27T14:48:00.261Z,-1.04
2023-02-27T14:50:32.231Z,-1.07
2023-02-27T14:53:01.497Z,-1.27
2023-02-27T14:55:30.356Z,-1.08
2023-02-27T14:58:00.849Z,-0.99
2023-02-27T15:00:33.860Z,-0.99
2023-02-27T15:03:02.121Z,-1.31
2023-02-27T15:05:34.760Z,-1.14
2023-02-27T15:08:04.144Z,-1.07
2023-02-27T15:10:33.227Z,-1.01
2023-02-27T15:13:01.895Z,-0.94
2023-02-27T15:15:29.859Z,-0.87
2023-02-27T15:17:57.490Z,-0.81
2023-02-27T15:20:29.810Z,-0.87
2023-02-27T15:22:57.950Z,-0.97
2023-02-27T15:25:32.765Z,-1.04
2023-02-27T15:28:03.101Z,-1.20
2023-02-27T15:30:31.604Z,-1.04
2023-02-27T15:32:59.788Z,-1.02
2023-02-27T15:35:31.778Z,-1.10
2023-02-27T15:37:59.947Z,-1.16
2023-02-27T15:40:31.033Z,-1.13
2023-02-27T15:42:59.392Z,-1.10
2023-02-27T15:45:28.965Z,-1.05
2023-02-27T15:47:56.758Z,-1.12
2023-02-27T15:50:27.585Z,-1.05
2023-02-27T15:52:59.957Z,-1.03
2023-02-27T15:55:32.476Z,-1.19
2023-02-27T15:58:03.377Z,-1.26
2023-02-27T16:00:32.333Z,-1.33
2023-02-27T16:03:00.851Z,-1.36
2023-02-27T16:05:32.902Z,-1.33
2023-02-27T16:08:00.937Z,-1.46
2023-02-27T16:10:31.688Z,-1.47
2023-02-27T16:12:59.321Z,-1.50
2023-02-27T16:15:30.619Z,-1.47
2023-02-27T16:18:01.304Z,-1.48
2023-02-27T16:20:41.051Z,-1.45
2023-02-27T16:23:17.153Z,-1.46
2023-02-27T16:26:01.820Z,-1.55
2023-02-27T16:28:31.247Z,-1.48
2023-02-27T16:30:59.043Z,-1.43
2023-02-27T16:33:28.851Z,-1.45
2023-02-27T16:36:11.849Z,-1.60
2023-02-27T16:38:39.730Z,-1.59
2023-02-27T16:41:11.834Z,-1.61
2023-02-27T16:43:39.727Z,-1.57
2023-02-27T16:46:08.231Z,-1.56
2023-02-27T16:48:36.563Z,-1.75
2023-02-27T16:51:04.782Z,-1.71
2023-02-27T16:53:32.378Z,-1.74
2023-02-27T16:56:02.063Z,-1.75
2023-02-27T16:58:31.039Z,-1.71
2023-02-27T17:00:58.674Z,-1.72
2023-02-27T17:03:26.280Z,-1.66
2023-02-27T17:05:54.017Z,-1.72
2023-02-27T17:08:22.307Z,-1.70
2023-02-27T17:10:50.009Z,-1.67
2023-02-27T17:13:18.290Z,-1.70
2023-02-27T17:15:47.412Z,-1.82
2023-02-27T17:18:15.039Z,-1.76
2023-02-27T17:20:42.644Z,-1.89
2023-02-27T17:23:12.915Z,-1.82
2023-02-27T17:25:42.655Z,-1.83
2023-02-27T17:28:10.597Z,-1.82
2023-02-27T17:30:39.726Z,-1.81
2023-02-27T17:33:08.747Z,-1.81
2023-02-27T17:35:36.377Z,-1.79
2023-02-27T17:38:07.348Z,-1.79
2023-02-27T17:40:37.374Z,-1.67
2023-02-27T17:43:04.991Z,-1.60
2023-02-27T17:45:32.729Z,-1.58
2023-02-27T17:48:00.408Z,-1.60
2023-02-27T17:50:31.959Z,-1.59
2023-02-27T17:52:59.532Z,-1.59
2023-02-27T17:55:27.144Z,-1.66
2023-02-27T17:57:54.753Z,-1.70
2023-02-27T18:00:23.751Z,-1.69
2023-02-27T18:02:51.398Z,-1.67
2023-02-27T18:05:19.296Z,-1.65
2023-02-27T18:07:48.603Z,-1.65
2023-02-27T18:10:16.282Z,-1.67
2023-02-27T18:12:44.167Z,-1.70
2023-02-27T18:15:11.889Z,-1.75
2023-02-27T18:17:39.486Z,-1.77
2023-02-27T18:20:09.195Z,-1.78
2023-02-27T18:22:36.797Z,-1.80
2023-02-27T18:25:07.171Z,-1.78
2023-02-27T18:27:34.767Z,-1.78
2023-02-27T18:30:02.761Z,-1.84
2023-02-27T18:32:30.325Z,-1.83
2023-02-27T18:34:57.871Z,-1.90
2023-02-27T18:37:25.493Z,-1.94
2023-02-27T18:39:53.074Z,-1.89
2023-02-27T18:42:22.027Z,-1.91
2023-02-27T18:44:49.720Z,-1.98
2023-02-27T18:47:17.331Z,-2.01
2023-02-27T18:49:45.987Z,-2.03
2023-02-27T18:52:13.601Z,-2.03
2023-02-27T18:54:42.369Z,-2.03
2023-02-27T18:57:10.142Z,-2.11
2023-02-27T18:59:41.175Z,-2.15
2023-02-27T19:02:13.539Z,-2.16
2023-02-27T19:04:41.105Z,-2.14
2023-02-27T19:07:08.740Z,-2.19
2023-02-27T19:09:36.322Z,-2.19
2023-02-27T19:12:04.514Z,-2.30
2023-02-27T19:14:32.122Z,-2.40
2023-02-27T19:17:01.613Z,-2.36
2023-02-27T19:19:29.903Z,-2.43
2023-02-27T19:21:57.749Z,-2.46
2023-02-27T19:24:26.053Z,-2.46
2023-02-27T19:26:53.732Z,-2.45
2023-02-27T19:29:21.510Z,-2.40
2023-02-27T19:31:49.239Z,-2.44
2023-02-27T19:34:18.313Z,-2.46
2023-02-27T19:36:46.059Z,-2.48
2023-02-27T19:39:13.784Z,-2.49
2023-02-27T19:41:42.054Z,-2.51
2023-02-27T19:44:10.046Z,-2.50
2023-02-27T19:46:39.130Z,-2.51
2023-02-27T19:49:08.271Z,-2.52
2023-02-27T19:51:37.476Z,-2.58
2023-02-27T19:54:05.440Z,-2.59
2023-02-27T19:56:33.080Z,-2.67
2023-02-27T19:59:02.004Z,-2.66
2023-02-27T20:01:31.434Z,-2.70
2023-02-27T20:03:59.935Z,-2.70
2023-02-27T20:06:29.667Z,-2.67
2023-02-27T20:08:59.610Z,-2.70
2023-02-27T20:11:30.479Z,-2.77
2023-02-27T20:13:58.922Z,-2.79
2023-02-27T20:16:28.197Z,-2.80
2023-02-27T20:18:56.341Z,-2.79
2023-02-27T20:21:26.799Z,-2.80
2023-02-27T20:23:55.302Z,-2.82
2023-02-27T20:26:27.082Z,-2.78
2023-02-27T20:28:56.114Z,-2.86
2023-02-27T20:31:25.776Z,-2.84
2023-02-27T20:33:53.528Z,-2.86
2023-02-27T20:36:21.680Z,-2.85
2023-02-27T20:38:49.451Z,-2.86
2023-02-27T20:41:18.683Z,-2.84
2023-02-27T20:43:47.706Z,-2.89
2023-02-27T20:46:17.147Z,-2.87
2023-02-27T20:48:44.996Z,-2.85
2023-02-27T20:51:13.961Z,-2.84
2023-02-27T20:53:43.719Z,-2.86
2023-02-27T20:56:11.455Z,-2.87
2023-02-27T20:58:40.016Z,-2.90
2023-02-27T21:01:11.451Z,-2.87
2023-02-27T21:03:40.754Z,-2.89
2023-02-27T21:06:10.757Z,-2.85
2023-02-27T21:08:39.114Z,-2.86
2023-02-27T21:11:10.145Z,-2.86
2023-02-27T21:13:38.107Z,-2.86
2023-02-27T21:16:07.322Z,-2.89
2023-02-27T21:18:37.752Z,-2.90
2023-02-27T21:21:06.755Z,-2.87
2023-02-27T21:23:40.105Z,-2.87
2023-02-27T21:26:08.007Z,-2.88
2023-02-27T21:28:46.847Z,-2.89
2023-02-27T21:31:15.207Z,-2.85
2023-02-27T21:33:44.825Z,-2.82
2023-02-27T21:36:13.017Z,-2.80
2023-02-27T21:38:40.970Z,-2.82
2023-02-27T21:41:11.413Z,-2.83
2023-02-27T21:43:40.366Z,-2.84
2023-02-27T21:46:08.925Z,-2.92
2023-02-27T21:48:36.636Z,-2.93
2023-02-27T21:51:06.989Z,-2.90
2023-02-27T21:53:36.627Z,-2.86
2023-02-27T21:56:05.449Z,-2.88
2023-02-27T21:58:33.483Z,-2.90
2023-02-27T22:01:01.241Z,-2.88
2023-02-27T22:03:34.148Z,-2.88
2023-02-27T22:06:02.449Z,-2.86
2023-02-27T22:08:31.557Z,-2.88
2023-02-27T22:10:59.738Z,-2.89
2023-02-27T22:13:27.929Z,-2.87
2023-02-27T22:15:55.574Z,-2.91
2023-02-27T22:18:23.292Z,-2.95
2023-02-27T22:20:50.888Z,-2.93
2023-02-27T22:23:18.686Z,-2.94
2023-02-27T22:25:47.623Z,-2.93
2023-02-27T22:28:15.811Z,-2.98
2023-02-27T22:30:43.420Z,-3.00
2023-02-27T22:33:11.032Z,-3.00
2023-02-27T22:35:38.662Z,-3.03
2023-02-27T22:38:06.308Z,-3.00
2023-02-27T22:40:36.077Z,-3.02
2023-02-27T22:43:05.076Z,-3.01
2023-02-27T22:45:32.689Z,-2.98
2023-02-27T22:48:00.321Z,-2.99
2023-02-27T22:50:27.953Z,-2.98
2023-02-27T22:52:55.560Z,-3.01
2023-02-27T22:55:23.151Z,-3.05
2023-02-27T22:57:51.833Z,-3.04
2023-02-27T23:00:21.164Z,-3.03
2023-02-27T23:02:48.790Z,-3.06
2023-02-27T23:05:16.439Z,-3.07
2023-02-27T23:07:44.032Z,-3.12
2023-02-27T23:10:12.807Z,-3.17
2023-02-27T23:12:40.412Z,-3.17
2023-02-27T23:15:09.708Z,-3.17
2023-02-27T23:17:51.956Z,-3.15
2023-02-27T23:20:24.002Z,-3.12
2023-02-27T23:22:52.900Z,-3.18
2023-02-27T23:25:20.717Z,-3.19
2023-02-27T23:27:48.442Z,-3.20
2023-02-27T23:30:16.786Z,-3.23
2023-02-27T23:32:45.824Z,-3.24
2023-02-27T23:35:16.200Z,-3.24
2023-02-27T23:37:43.802Z,-3.27
2023-02-27T23:40:12.899Z,-3.24
2023-02-27T23:42:40.489Z,-3.24
2023-02-27T23:45:24.045Z,-3.24
2023-02-27T23:47:54.666Z,-3.26
2023-02-27T23:50:23.682Z,-3.31
2023-02-27T23:52:52.756Z,-3.33
2023-02-27T23:55:21.240Z,-3.37
2023-02-27T23:57:51.930Z,-3.37
